首页
METAR-TAF:

METAR-TAF

机场 :

林丁平德林国际机场

拿骚, 巴哈马

纬度: 25-03N, 经度: 077-28W, 海拔: 3米

当前天气观测

该预报发布于31分钟前的21:00 UTC
风速12节,风向
温度 28°C
湿度 70%
气压 1018 hPa
能见度10公里或以上
多云层高于2000英尺, 塔状积云.
多云层高于8000英尺
附近有阵雨

METAR: MYNN 222100Z 08012KT 9999 VCSH BKN020TCU BKN080 28/22 A3005 RMK VCSH NW TCU E/ NW

时间: 17:31 (21:31 UTC)

预报

该预报发布于4小时和31分钟前的17:00 UTC
预报有效从22日的 18点(UTC)到 23日的 18点(UTC)
风速12节,风向北转东北
能见度10公里或以上
散云层高于1500英尺, 积雨云.
多云层高于1600英尺
附近有阵雨
从 23日的 0000点(UTC)
风速15节,风向,有时为25节阵风
能見度: 7000
散云层高于1500英尺, 积雨云.
多云层高于8000英尺
阵雨

TAF: MYNN 221700Z 2218/2318 02012KT 9999 VCSH SCT015CB BKN016 FM230000 09015G25KT 7000 SHRA SCT015CB BKN080

超过4000个机场的气象观测和天气预报(METAR&TAF报告)。

可查询的气象台以黄色和红色小点在地图上表示。

将鼠标移到小点上方,可查看气象台名称。

然后点击查看天气观测和预报。

如需切换地图:点击带黑十字的绿色按钮放大地图;点击带横线的绿色按钮缩小地图;或者点击绿色箭头查看邻近地区的地图。


METAR-TAF: